sensor_id;sensor_type;location;lat;lon;timestamp;P1;durP1;ratioP1;P2;durP2;ratioP2
9364;SDS011;4722;49.340;9.800;2023-03-01T00:01:47;16.33;;;7.97;;
9364;SDS011;4722;49.340;9.800;2023-03-01T00:04:13;15.33;;;7.30;;
9364;SDS011;4722;49.340;9.800;2023-03-01T00:06:39;17.03;;;8.07;;
9364;SDS011;4722;49.340;9.800;2023-03-01T00:09:05;13.63;;;6.80;;
9364;SDS011;4722;49.340;9.800;2023-03-01T00:11:31;17.27;;;7.80;;
9364;SDS011;4722;49.340;9.800;2023-03-01T00:13:59;14.88;;;7.85;;
9364;SDS011;4722;49.340;9.800;2023-03-01T00:16:38;17.25;;;7.35;;
9364;SDS011;4722;49.340;9.800;2023-03-01T00:19:05;13.83;;;6.87;;
9364;SDS011;4722;49.340;9.800;2023-03-01T00:21:31;16.50;;;7.35;;
9364;SDS011;4722;49.340;9.800;2023-03-01T00:23:58;14.27;;;6.73;;
9364;SDS011;4722;49.340;9.800;2023-03-01T00:26:25;10.40;;;5.95;;
9364;SDS011;4722;49.340;9.800;2023-03-01T00:28:51;15.63;;;7.50;;
9364;SDS011;4722;49.340;9.800;2023-03-01T00:31:18;16.23;;;7.63;;
9364;SDS011;4722;49.340;9.800;2023-03-01T00:33:45;14.73;;;7.30;;
9364;SDS011;4722;49.340;9.800;2023-03-01T00:36:12;16.08;;;7.68;;
9364;SDS011;4722;49.340;9.800;2023-03-01T00:38:39;16.40;;;6.80;;
9364;SDS011;4722;49.340;9.800;2023-03-01T00:41:07;12.77;;;6.55;;
9364;SDS011;4722;49.340;9.800;2023-03-01T00:43:34;12.30;;;7.20;;
9364;SDS011;4722;49.340;9.800;2023-03-01T00:46:09;17.33;;;8.50;;
9364;SDS011;4722;49.340;9.800;2023-03-01T00:48:35;18.65;;;8.43;;
9364;SDS011;4722;49.340;9.800;2023-03-01T00:51:20;19.15;;;8.20;;
9364;SDS011;4722;49.340;9.800;2023-03-01T00:53:46;21.77;;;8.97;;
9364;SDS011;4722;49.340;9.800;2023-03-01T00:56:14;17.30;;;8.48;;
9364;SDS011;4722;49.340;9.800;2023-03-01T00:58:40;15.57;;;8.23;;
9364;SDS011;4722;49.340;9.800;2023-03-01T01:03:45;17.52;;;8.63;;
9364;SDS011;4722;49.340;9.800;2023-03-01T01:06:19;15.43;;;7.88;;
9364;SDS011;4722;49.340;9.800;2023-03-01T01:08:46;22.08;;;9.85;;
9364;SDS011;4722;49.340;9.800;2023-03-01T01:11:13;18.58;;;9.02;;
9364;SDS011;4722;49.340;9.800;2023-03-01T01:13:39;16.55;;;8.18;;
9364;SDS011;4722;49.340;9.800;2023-03-01T01:16:05;19.67;;;9.30;;
9364;SDS011;4722;49.340;9.800;2023-03-01T01:18:32;18.05;;;8.68;;
9364;SDS011;4722;49.340;9.800;2023-03-01T01:21:02;24.10;;;10.32;;
9364;SDS011;4722;49.340;9.800;2023-03-01T01:23:28;25.40;;;12.50;;
9364;SDS011;4722;49.340;9.800;2023-03-01T01:25:54;22.35;;;9.70;;
9364;SDS011;4722;49.340;9.800;2023-03-01T01:28:20;24.73;;;11.05;;
9364;SDS011;4722;49.340;9.800;2023-03-01T01:30:46;19.20;;;8.48;;
9364;SDS011;4722;49.340;9.800;2023-03-01T01:33:12;19.38;;;8.27;;
9364;SDS011;4722;49.340;9.800;2023-03-01T01:35:38;18.08;;;7.70;;
9364;SDS011;4722;49.340;9.800;2023-03-01T01:38:04;17.55;;;8.38;;
9364;SDS011;4722;49.340;9.800;2023-03-01T01:40:30;17.08;;;8.93;;
9364;SDS011;4722;49.340;9.800;2023-03-01T01:42:55;18.80;;;8.15;;
9364;SDS011;4722;49.340;9.800;2023-03-01T01:45:26;15.73;;;8.10;;
9364;SDS011;4722;49.340;9.800;2023-03-01T01:47:52;14.50;;;7.97;;
9364;SDS011;4722;49.340;9.800;2023-03-01T01:50:20;12.82;;;6.47;;
9364;SDS011;4722;49.340;9.800;2023-03-01T01:52:46;14.57;;;6.90;;
9364;SDS011;4722;49.340;9.800;2023-03-01T01:55:15;14.80;;;6.83;;
9364;SDS011;4722;49.340;9.800;2023-03-01T01:57:46;20.60;;;8.13;;
9364;SDS011;4722;49.340;9.800;2023-03-01T02:00:17;16.95;;;7.78;;
9364;SDS011;4722;49.340;9.800;2023-03-01T02:02:44;19.17;;;8.73;;
9364;SDS011;4722;49.340;9.800;2023-03-01T02:05:15;17.50;;;9.40;;
9364;SDS011;4722;49.340;9.800;2023-03-01T02:07:42;18.85;;;7.95;;
9364;SDS011;4722;49.340;9.800;2023-03-01T02:10:09;21.40;;;9.15;;
9364;SDS011;4722;49.340;9.800;2023-03-01T02:12:35;17.27;;;8.55;;
9364;SDS011;4722;49.340;9.800;2023-03-01T02:15:01;18.17;;;9.25;;
9364;SDS011;4722;49.340;9.800;2023-03-01T02:17:27;19.65;;;8.68;;
9364;SDS011;4722;49.340;9.800;2023-03-01T02:22:38;19.17;;;9.25;;
9364;SDS011;4722;49.340;9.800;2023-03-01T02:27:36;14.70;;;8.23;;
9364;SDS011;4722;49.340;9.800;2023-03-01T02:30:04;20.90;;;8.80;;
9364;SDS011;4722;49.340;9.800;2023-03-01T02:32:31;22.88;;;9.25;;
9364;SDS011;4722;49.340;9.800;2023-03-01T02:34:57;17.80;;;8.60;;
9364;SDS011;4722;49.340;9.800;2023-03-01T02:37:23;22.42;;;9.93;;
9364;SDS011;4722;49.340;9.800;2023-03-01T02:39:53;21.17;;;9.57;;
9364;SDS011;4722;49.340;9.800;2023-03-01T02:42:23;16.07;;;7.90;;
9364;SDS011;4722;49.340;9.800;2023-03-01T02:44:49;14.40;;;7.60;;
9364;SDS011;4722;49.340;9.800;2023-03-01T02:47:15;17.13;;;8.15;;
9364;SDS011;4722;49.340;9.800;2023-03-01T02:49:41;19.60;;;9.40;;
9364;SDS011;4722;49.340;9.800;2023-03-01T02:54:36;21.23;;;9.02;;
9364;SDS011;4722;49.340;9.800;2023-03-01T02:57:05;18.38;;;8.32;;
9364;SDS011;4722;49.340;9.800;2023-03-01T02:59:31;17.92;;;8.15;;
9364;SDS011;4722;49.340;9.800;2023-03-01T03:02:04;13.88;;;7.10;;
9364;SDS011;4722;49.340;9.800;2023-03-01T03:04:29;17.75;;;8.32;;
9364;SDS011;4722;49.340;9.800;2023-03-01T03:06:55;17.60;;;7.90;;
9364;SDS011;4722;49.340;9.800;2023-03-01T03:09:21;14.77;;;7.25;;
9364;SDS011;4722;49.340;9.800;2023-03-01T03:11:47;17.75;;;8.13;;
9364;SDS011;4722;49.340;9.800;2023-03-01T03:14:14;20.63;;;8.20;;
9364;SDS011;4722;49.340;9.800;2023-03-01T03:16:41;16.73;;;7.80;;
9364;SDS011;4722;49.340;9.800;2023-03-01T03:19:07;18.45;;;8.68;;
9364;SDS011;4722;49.340;9.800;2023-03-01T03:21:33;17.70;;;7.88;;
9364;SDS011;4722;49.340;9.800;2023-03-01T03:23:59;18.75;;;8.50;;
9364;SDS011;4722;49.340;9.800;2023-03-01T03:26:25;15.90;;;8.40;;
9364;SDS011;4722;49.340;9.800;2023-03-01T03:28:51;16.30;;;8.97;;
9364;SDS011;4722;49.340;9.800;2023-03-01T03:31:17;17.80;;;8.07;;
9364;SDS011;4722;49.340;9.800;2023-03-01T03:33:43;17.40;;;8.25;;
9364;SDS011;4722;49.340;9.800;2023-03-01T03:36:09;15.52;;;8.15;;
9364;SDS011;4722;49.340;9.800;2023-03-01T03:38:43;16.25;;;8.85;;
9364;SDS011;4722;49.340;9.800;2023-03-01T03:41:09;18.23;;;9.05;;
9364;SDS011;4722;49.340;9.800;2023-03-01T03:43:36;20.67;;;8.70;;
9364;SDS011;4722;49.340;9.800;2023-03-01T03:46:03;14.65;;;7.75;;
9364;SDS011;4722;49.340;9.800;2023-03-01T03:48:33;18.75;;;9.57;;
9364;SDS011;4722;49.340;9.800;2023-03-01T03:50:59;21.85;;;9.23;;
9364;SDS011;4722;49.340;9.800;2023-03-01T03:53:26;23.63;;;9.73;;
9364;SDS011;4722;49.340;9.800;2023-03-01T03:55:53;23.45;;;9.68;;
9364;SDS011;4722;49.340;9.800;2023-03-01T03:58:19;19.83;;;8.77;;
9364;SDS011;4722;49.340;9.800;2023-03-01T04:00:46;16.05;;;7.95;;
9364;SDS011;4722;49.340;9.800;2023-03-01T04:03:13;19.73;;;9.50;;
9364;SDS011;4722;49.340;9.800;2023-03-01T04:05:39;19.02;;;8.88;;
9364;SDS011;4722;49.340;9.800;2023-03-01T04:08:05;18.30;;;8.48;;
9364;SDS011;4722;49.340;9.800;2023-03-01T04:10:37;19.17;;;8.50;;
9364;SDS011;4722;49.340;9.800;2023-03-01T04:13:04;21.10;;;8.85;;
9364;SDS011;4722;49.340;9.800;2023-03-01T04:15:30;20.17;;;9.05;;
9364;SDS011;4722;49.340;9.800;2023-03-01T04:17:57;17.05;;;8.82;;
9364;SDS011;4722;49.340;9.800;2023-03-01T04:20:25;19.87;;;9.23;;
9364;SDS011;4722;49.340;9.800;2023-03-01T04:25:23;21.30;;;9.38;;
9364;SDS011;4722;49.340;9.800;2023-03-01T04:27:49;20.05;;;10.23;;
9364;SDS011;4722;49.340;9.800;2023-03-01T04:30:15;18.20;;;9.07;;
9364;SDS011;4722;49.340;9.800;2023-03-01T04:32:41;22.50;;;11.17;;
9364;SDS011;4722;49.340;9.800;2023-03-01T04:35:07;21.80;;;9.70;;
9364;SDS011;4722;49.340;9.800;2023-03-01T04:37:33;20.52;;;9.30;;
9364;SDS011;4722;49.340;9.800;2023-03-01T04:40:00;19.45;;;9.32;;
9364;SDS011;4722;49.340;9.800;2023-03-01T04:42:37;19.10;;;8.03;;
9364;SDS011;4722;49.340;9.800;2023-03-01T04:45:03;21.63;;;8.13;;
9364;SDS011;4722;49.340;9.800;2023-03-01T04:47:37;22.67;;;10.18;;
9364;SDS011;4722;49.340;9.800;2023-03-01T04:50:03;21.33;;;9.20;;
9364;SDS011;4722;49.340;9.800;2023-03-01T04:52:29;23.23;;;9.98;;
9364;SDS011;4722;49.340;9.800;2023-03-01T04:54:56;18.23;;;8.52;;
9364;SDS011;4722;49.340;9.800;2023-03-01T04:57:22;19.23;;;8.50;;
9364;SDS011;4722;49.340;9.800;2023-03-01T04:59:48;20.13;;;8.80;;
9364;SDS011;4722;49.340;9.800;2023-03-01T05:02:14;18.43;;;8.27;;
9364;SDS011;4722;49.340;9.800;2023-03-01T05:04:40;19.57;;;9.17;;
9364;SDS011;4722;49.340;9.800;2023-03-01T05:07:06;20.27;;;9.80;;
9364;SDS011;4722;49.340;9.800;2023-03-01T05:09:32;20.30;;;9.30;;
9364;SDS011;4722;49.340;9.800;2023-03-01T05:11:58;21.50;;;9.85;;
9364;SDS011;4722;49.340;9.800;2023-03-01T05:14:24;21.23;;;9.27;;
9364;SDS011;4722;49.340;9.800;2023-03-01T05:16:50;18.33;;;9.18;;
9364;SDS011;4722;49.340;9.800;2023-03-01T05:19:16;22.75;;;10.50;;
9364;SDS011;4722;49.340;9.800;2023-03-01T05:21:47;17.40;;;8.65;;
9364;SDS011;4722;49.340;9.800;2023-03-01T05:24:26;22.70;;;9.98;;
9364;SDS011;4722;49.340;9.800;2023-03-01T05:26:53;21.58;;;11.02;;
9364;SDS011;4722;49.340;9.800;2023-03-01T05:29:19;24.92;;;10.93;;
9364;SDS011;4722;49.340;9.800;2023-03-01T05:31:50;25.63;;;10.98;;
9364;SDS011;4722;49.340;9.800;2023-03-01T05:34:16;23.98;;;11.30;;
9364;SDS011;4722;49.340;9.800;2023-03-01T05:36:42;25.13;;;10.43;;
9364;SDS011;4722;49.340;9.800;2023-03-01T05:39:07;18.67;;;8.85;;
9364;SDS011;4722;49.340;9.800;2023-03-01T05:41:33;24.65;;;10.38;;
9364;SDS011;4722;49.340;9.800;2023-03-01T05:43:59;23.30;;;9.93;;
9364;SDS011;4722;49.340;9.800;2023-03-01T05:46:25;18.38;;;8.23;;
9364;SDS011;4722;49.340;9.800;2023-03-01T05:48:51;20.60;;;8.82;;
9364;SDS011;4722;49.340;9.800;2023-03-01T05:51:17;19.02;;;8.98;;
9364;SDS011;4722;49.340;9.800;2023-03-01T05:53:43;16.23;;;7.90;;
9364;SDS011;4722;49.340;9.800;2023-03-01T05:56:09;22.10;;;10.17;;
9364;SDS011;4722;49.340;9.800;2023-03-01T05:58:35;20.10;;;9.85;;
9364;SDS011;4722;49.340;9.800;2023-03-01T06:01:03;18.13;;;8.90;;
9364;SDS011;4722;49.340;9.800;2023-03-01T06:03:29;22.20;;;9.73;;
9364;SDS011;4722;49.340;9.800;2023-03-01T06:05:56;21.83;;;10.38;;
9364;SDS011;4722;49.340;9.800;2023-03-01T06:08:22;23.00;;;10.23;;
9364;SDS011;4722;49.340;9.800;2023-03-01T06:10:49;20.27;;;9.65;;
9364;SDS011;4722;49.340;9.800;2023-03-01T06:13:15;19.15;;;9.25;;
9364;SDS011;4722;49.340;9.800;2023-03-01T06:15:41;18.77;;;8.82;;
9364;SDS011;4722;49.340;9.800;2023-03-01T06:18:07;20.80;;;8.52;;
9364;SDS011;4722;49.340;9.800;2023-03-01T06:20:33;20.40;;;9.38;;
9364;SDS011;4722;49.340;9.800;2023-03-01T06:22:59;20.55;;;9.82;;
9364;SDS011;4722;49.340;9.800;2023-03-01T06:25:25;21.73;;;10.20;;
9364;SDS011;4722;49.340;9.800;2023-03-01T06:27:52;21.55;;;10.50;;
9364;SDS011;4722;49.340;9.800;2023-03-01T06:30:18;24.35;;;9.88;;
9364;SDS011;4722;49.340;9.800;2023-03-01T06:32:45;16.75;;;7.88;;
9364;SDS011;4722;49.340;9.800;2023-03-01T06:35:11;19.80;;;9.02;;
9364;SDS011;4722;49.340;9.800;2023-03-01T06:37:37;16.00;;;7.95;;
9364;SDS011;4722;49.340;9.800;2023-03-01T06:40:04;18.42;;;9.23;;
9364;SDS011;4722;49.340;9.800;2023-03-01T06:42:34;22.67;;;10.60;;
9364;SDS011;4722;49.340;9.800;2023-03-01T06:45:01;22.85;;;9.52;;
9364;SDS011;4722;49.340;9.800;2023-03-01T06:47:27;21.70;;;9.93;;
9364;SDS011;4722;49.340;9.800;2023-03-01T06:49:53;18.63;;;9.02;;
9364;SDS011;4722;49.340;9.800;2023-03-01T06:52:19;19.50;;;9.43;;
9364;SDS011;4722;49.340;9.800;2023-03-01T06:54:45;20.92;;;9.02;;
9364;SDS011;4722;49.340;9.800;2023-03-01T06:57:11;20.23;;;8.80;;
9364;SDS011;4722;49.340;9.800;2023-03-01T06:59:37;24.98;;;10.55;;
9364;SDS011;4722;49.340;9.800;2023-03-01T07:02:03;22.20;;;10.10;;
9364;SDS011;4722;49.340;9.800;2023-03-01T07:04:29;18.90;;;8.93;;
9364;SDS011;4722;49.340;9.800;2023-03-01T07:06:55;21.47;;;10.20;;
9364;SDS011;4722;49.340;9.800;2023-03-01T07:09:22;23.57;;;9.67;;
9364;SDS011;4722;49.340;9.800;2023-03-01T07:11:48;24.90;;;10.95;;
9364;SDS011;4722;49.340;9.800;2023-03-01T07:14:14;19.73;;;9.73;;
9364;SDS011;4722;49.340;9.800;2023-03-01T07:16:40;21.52;;;10.25;;
9364;SDS011;4722;49.340;9.800;2023-03-01T07:19:06;22.13;;;10.32;;
9364;SDS011;4722;49.340;9.800;2023-03-01T07:21:32;18.30;;;9.60;;
9364;SDS011;4722;49.340;9.800;2023-03-01T07:23:58;21.98;;;9.50;;
9364;SDS011;4722;49.340;9.800;2023-03-01T07:26:24;24.02;;;10.88;;
9364;SDS011;4722;49.340;9.800;2023-03-01T07:28:50;19.85;;;9.18;;
9364;SDS011;4722;49.340;9.800;2023-03-01T07:31:16;22.95;;;10.07;;
9364;SDS011;4722;49.340;9.800;2023-03-01T07:33:42;18.98;;;10.00;;
9364;SDS011;4722;49.340;9.800;2023-03-01T07:36:08;18.65;;;9.27;;
9364;SDS011;4722;49.340;9.800;2023-03-01T07:38:34;21.07;;;10.10;;
9364;SDS011;4722;49.340;9.800;2023-03-01T07:41:01;20.60;;;9.10;;
9364;SDS011;4722;49.340;9.800;2023-03-01T07:43:28;20.15;;;10.07;;
9364;SDS011;4722;49.340;9.800;2023-03-01T07:45:53;20.05;;;9.02;;
9364;SDS011;4722;49.340;9.800;2023-03-01T07:48:19;20.83;;;10.02;;
9364;SDS011;4722;49.340;9.800;2023-03-01T07:50:46;20.63;;;9.20;;
9364;SDS011;4722;49.340;9.800;2023-03-01T07:53:12;26.48;;;10.75;;
9364;SDS011;4722;49.340;9.800;2023-03-01T07:55:38;23.63;;;10.17;;
9364;SDS011;4722;49.340;9.800;2023-03-01T07:58:04;21.57;;;9.30;;
9364;SDS011;4722;49.340;9.800;2023-03-01T08:00:30;22.00;;;9.98;;
9364;SDS011;4722;49.340;9.800;2023-03-01T08:02:58;23.77;;;10.75;;
9364;SDS011;4722;49.340;9.800;2023-03-01T08:05:24;19.65;;;9.10;;
9364;SDS011;4722;49.340;9.800;2023-03-01T08:07:50;19.90;;;9.23;;
9364;SDS011;4722;49.340;9.800;2023-03-01T08:10:16;17.77;;;9.02;;
9364;SDS011;4722;49.340;9.800;2023-03-01T08:12:42;20.75;;;8.73;;
9364;SDS011;4722;49.340;9.800;2023-03-01T08:15:08;21.97;;;9.77;;
9364;SDS011;4722;49.340;9.800;2023-03-01T08:17:34;23.38;;;10.85;;
9364;SDS011;4722;49.340;9.800;2023-03-01T08:20:00;19.65;;;9.20;;
9364;SDS011;4722;49.340;9.800;2023-03-01T08:22:28;24.88;;;9.98;;
9364;SDS011;4722;49.340;9.800;2023-03-01T08:24:53;23.08;;;9.85;;
9364;SDS011;4722;49.340;9.800;2023-03-01T08:27:20;21.65;;;10.05;;
9364;SDS011;4722;49.340;9.800;2023-03-01T08:29:46;18.77;;;9.60;;
9364;SDS011;4722;49.340;9.800;2023-03-01T08:32:12;22.38;;;9.68;;
9364;SDS011;4722;49.340;9.800;2023-03-01T08:34:38;22.65;;;10.57;;
9364;SDS011;4722;49.340;9.800;2023-03-01T08:37:04;22.13;;;10.30;;
9364;SDS011;4722;49.340;9.800;2023-03-01T08:39:30;12.43;;;6.63;;
9364;SDS011;4722;49.340;9.800;2023-03-01T08:41:56;18.17;;;7.50;;
9364;SDS011;4722;49.340;9.800;2023-03-01T08:44:22;11.05;;;6.05;;
9364;SDS011;4722;49.340;9.800;2023-03-01T08:46:49;15.80;;;6.85;;
9364;SDS011;4722;49.340;9.800;2023-03-01T08:49:18;16.35;;;7.32;;
9364;SDS011;4722;49.340;9.800;2023-03-01T08:51:44;12.13;;;6.75;;
9364;SDS011;4722;49.340;9.800;2023-03-01T08:54:12;14.15;;;7.22;;
9364;SDS011;4722;49.340;9.800;2023-03-01T08:56:38;16.45;;;7.35;;
9364;SDS011;4722;49.340;9.800;2023-03-01T08:59:04;11.73;;;6.50;;
9364;SDS011;4722;49.340;9.800;2023-03-01T09:01:30;11.23;;;5.80;;
9364;SDS011;4722;49.340;9.800;2023-03-01T09:03:56;20.10;;;6.88;;
9364;SDS011;4722;49.340;9.800;2023-03-01T09:06:22;14.15;;;6.57;;
9364;SDS011;4722;49.340;9.800;2023-03-01T09:08:49;18.00;;;7.43;;
9364;SDS011;4722;49.340;9.800;2023-03-01T09:11:16;14.73;;;7.00;;
9364;SDS011;4722;49.340;9.800;2023-03-01T09:13:42;13.90;;;6.20;;
9364;SDS011;4722;49.340;9.800;2023-03-01T09:16:09;15.05;;;7.50;;
9364;SDS011;4722;49.340;9.800;2023-03-01T09:18:36;12.63;;;6.22;;
9364;SDS011;4722;49.340;9.800;2023-03-01T09:23:33;21.30;;;7.28;;
9364;SDS011;4722;49.340;9.800;2023-03-01T09:25:59;18.90;;;7.53;;
9364;SDS011;4722;49.340;9.800;2023-03-01T09:28:25;15.35;;;7.43;;
9364;SDS011;4722;49.340;9.800;2023-03-01T09:30:51;17.83;;;7.80;;
9364;SDS011;4722;49.340;9.800;2023-03-01T09:33:17;16.60;;;6.68;;
9364;SDS011;4722;49.340;9.800;2023-03-01T09:35:43;18.45;;;7.20;;
9364;SDS011;4722;49.340;9.800;2023-03-01T09:38:12;15.82;;;6.55;;
9364;SDS011;4722;49.340;9.800;2023-03-01T09:40:41;16.10;;;6.63;;
9364;SDS011;4722;49.340;9.800;2023-03-01T09:43:21;15.38;;;7.45;;
9364;SDS011;4722;49.340;9.800;2023-03-01T09:45:59;18.73;;;8.00;;
9364;SDS011;4722;49.340;9.800;2023-03-01T09:48:27;16.33;;;6.25;;
9364;SDS011;4722;49.340;9.800;2023-03-01T09:50:54;20.38;;;8.13;;
9364;SDS011;4722;49.340;9.800;2023-03-01T09:53:26;16.35;;;7.13;;
9364;SDS011;4722;49.340;9.800;2023-03-01T09:58:31;15.88;;;7.88;;
9364;SDS011;4722;49.340;9.800;2023-03-01T10:01:02;16.45;;;6.78;;
9364;SDS011;4722;49.340;9.800;2023-03-01T10:03:39;13.48;;;7.47;;
9364;SDS011;4722;49.340;9.800;2023-03-01T10:06:11;13.60;;;6.53;;
9364;SDS011;4722;49.340;9.800;2023-03-01T10:08:41;17.40;;;7.25;;
9364;SDS011;4722;49.340;9.800;2023-03-01T10:11:21;17.58;;;7.65;;
9364;SDS011;4722;49.340;9.800;2023-03-01T10:13:56;14.45;;;7.03;;
9364;SDS011;4722;49.340;9.800;2023-03-01T10:19:11;18.13;;;8.55;;
9364;SDS011;4722;49.340;9.800;2023-03-01T10:21:40;18.63;;;8.70;;
9364;SDS011;4722;49.340;9.800;2023-03-01T10:24:16;10.57;;;6.43;;
9364;SDS011;4722;49.340;9.800;2023-03-01T10:26:53;20.00;;;7.10;;
9364;SDS011;4722;49.340;9.800;2023-03-01T10:29:22;17.77;;;8.05;;
9364;SDS011;4722;49.340;9.800;2023-03-01T10:31:50;17.55;;;7.68;;
9364;SDS011;4722;49.340;9.800;2023-03-01T10:34:21;18.60;;;8.85;;
9364;SDS011;4722;49.340;9.800;2023-03-01T10:36:48;18.55;;;7.90;;
9364;SDS011;4722;49.340;9.800;2023-03-01T10:39:20;17.63;;;7.28;;
9364;SDS011;4722;49.340;9.800;2023-03-01T10:47:00;19.73;;;8.15;;
9364;SDS011;4722;49.340;9.800;2023-03-01T10:49:26;13.88;;;6.72;;
9364;SDS011;4722;49.340;9.800;2023-03-01T10:51:53;14.18;;;7.35;;
9364;SDS011;4722;49.340;9.800;2023-03-01T10:54:20;18.95;;;7.90;;
9364;SDS011;4722;49.340;9.800;2023-03-01T10:56:57;23.70;;;7.78;;
9364;SDS011;4722;49.340;9.800;2023-03-01T10:59:30;11.85;;;6.85;;
9364;SDS011;4722;49.340;9.800;2023-03-01T11:05:02;16.40;;;7.35;;
9364;SDS011;4722;49.340;9.800;2023-03-01T11:07:33;23.98;;;6.95;;
9364;SDS011;4722;49.340;9.800;2023-03-01T11:10:15;15.93;;;7.05;;
9364;SDS011;4722;49.340;9.800;2023-03-01T11:12:43;14.88;;;7.18;;
9364;SDS011;4722;49.340;9.800;2023-03-01T11:15:19;16.35;;;7.88;;
9364;SDS011;4722;49.340;9.800;2023-03-01T11:17:45;16.30;;;8.52;;
9364;SDS011;4722;49.340;9.800;2023-03-01T11:20:24;17.17;;;7.90;;
9364;SDS011;4722;49.340;9.800;2023-03-01T11:22:55;17.65;;;7.35;;
9364;SDS011;4722;49.340;9.800;2023-03-01T11:25:37;29.17;;;9.35;;
9364;SDS011;4722;49.340;9.800;2023-03-01T11:28:05;13.35;;;7.13;;
9364;SDS011;4722;49.340;9.800;2023-03-01T11:30:41;16.52;;;8.77;;
9364;SDS011;4722;49.340;9.800;2023-03-01T11:33:15;16.93;;;8.17;;
9364;SDS011;4722;49.340;9.800;2023-03-01T11:35:44;18.95;;;8.07;;
9364;SDS011;4722;49.340;9.800;2023-03-01T11:38:22;17.13;;;7.57;;
9364;SDS011;4722;49.340;9.800;2023-03-01T11:43:32;17.10;;;7.38;;
9364;SDS011;4722;49.340;9.800;2023-03-01T11:51:17;15.35;;;7.47;;
9364;SDS011;4722;49.340;9.800;2023-03-01T11:56:47;15.23;;;7.07;;
9364;SDS011;4722;49.340;9.800;2023-03-01T11:59:25;14.07;;;6.78;;
9364;SDS011;4722;49.340;9.800;2023-03-01T12:01:59;15.30;;;8.20;;
9364;SDS011;4722;49.340;9.800;2023-03-01T12:09:53;23.20;;;7.85;;
9364;SDS011;4722;49.340;9.800;2023-03-01T12:12:31;15.40;;;7.53;;
9364;SDS011;4722;49.340;9.800;2023-03-01T12:17:39;16.33;;;6.90;;
9364;SDS011;4722;49.340;9.800;2023-03-01T12:25:16;12.48;;;6.30;;
9364;SDS011;4722;49.340;9.800;2023-03-01T12:28:07;15.57;;;7.00;;
9364;SDS011;4722;49.340;9.800;2023-03-01T12:30:39;21.20;;;7.55;;
9364;SDS011;4722;49.340;9.800;2023-03-01T12:38:33;19.05;;;6.00;;
9364;SDS011;4722;49.340;9.800;2023-03-01T12:43:58;18.80;;;6.30;;
9364;SDS011;4722;49.340;9.800;2023-03-01T12:49:05;15.32;;;6.25;;
9364;SDS011;4722;49.340;9.800;2023-03-01T12:51:32;17.73;;;7.80;;
9364;SDS011;4722;49.340;9.800;2023-03-01T12:54:01;16.85;;;7.57;;
9364;SDS011;4722;49.340;9.800;2023-03-01T12:56:31;14.68;;;6.15;;
9364;SDS011;4722;49.340;9.800;2023-03-01T12:59:12;20.17;;;6.15;;
9364;SDS011;4722;49.340;9.800;2023-03-01T13:01:45;16.10;;;6.88;;
9364;SDS011;4722;49.340;9.800;2023-03-01T13:09:30;13.68;;;7.20;;
9364;SDS011;4722;49.340;9.800;2023-03-01T13:11:57;16.45;;;7.40;;
9364;SDS011;4722;49.340;9.800;2023-03-01T13:16:50;15.98;;;6.63;;
9364;SDS011;4722;49.340;9.800;2023-03-01T13:19:17;9.60;;;5.07;;
9364;SDS011;4722;49.340;9.800;2023-03-01T13:21:44;19.33;;;7.22;;
9364;SDS011;4722;49.340;9.800;2023-03-01T13:24:33;15.50;;;7.10;;
9364;SDS011;4722;49.340;9.800;2023-03-01T13:29:52;13.43;;;6.47;;
9364;SDS011;4722;49.340;9.800;2023-03-01T13:32:23;18.02;;;7.80;;
9364;SDS011;4722;49.340;9.800;2023-03-01T13:34:53;14.90;;;6.38;;
9364;SDS011;4722;49.340;9.800;2023-03-01T13:37:24;18.35;;;7.20;;
9364;SDS011;4722;49.340;9.800;2023-03-01T13:39:51;17.23;;;8.20;;
9364;SDS011;4722;49.340;9.800;2023-03-01T13:44:57;15.07;;;6.35;;
9364;SDS011;4722;49.340;9.800;2023-03-01T13:47:24;20.63;;;7.85;;
9364;SDS011;4722;49.340;9.800;2023-03-01T13:50:00;18.05;;;8.52;;
9364;SDS011;4722;49.340;9.800;2023-03-01T13:52:40;16.42;;;6.95;;
9364;SDS011;4722;49.340;9.800;2023-03-01T13:57:41;20.00;;;7.88;;
9364;SDS011;4722;49.340;9.800;2023-03-01T14:00:24;15.15;;;7.75;;
9364;SDS011;4722;49.340;9.800;2023-03-01T14:03:00;16.52;;;7.25;;
9364;SDS011;4722;49.340;9.800;2023-03-01T14:05:27;15.15;;;5.90;;
9364;SDS011;4722;49.340;9.800;2023-03-01T14:07:53;14.73;;;7.03;;
9364;SDS011;4722;49.340;9.800;2023-03-01T14:10:19;15.80;;;7.18;;
9364;SDS011;4722;49.340;9.800;2023-03-01T14:18:14;15.88;;;7.43;;
9364;SDS011;4722;49.340;9.800;2023-03-01T14:20:45;16.25;;;6.82;;
9364;SDS011;4722;49.340;9.800;2023-03-01T14:23:17;17.10;;;6.75;;
9364;SDS011;4722;49.340;9.800;2023-03-01T14:26:02;17.55;;;6.28;;
9364;SDS011;4722;49.340;9.800;2023-03-01T14:28:29;15.50;;;6.80;;
9364;SDS011;4722;49.340;9.800;2023-03-01T14:30:58;12.75;;;5.97;;
9364;SDS011;4722;49.340;9.800;2023-03-01T14:35:52;16.90;;;7.60;;
9364;SDS011;4722;49.340;9.800;2023-03-01T14:38:21;18.52;;;7.53;;
9364;SDS011;4722;49.340;9.800;2023-03-01T14:40:48;17.92;;;7.15;;
9364;SDS011;4722;49.340;9.800;2023-03-01T14:43:17;15.18;;;6.95;;
9364;SDS011;4722;49.340;9.800;2023-03-01T14:45:48;15.63;;;7.10;;
9364;SDS011;4722;49.340;9.800;2023-03-01T14:48:15;15.43;;;6.28;;
9364;SDS011;4722;49.340;9.800;2023-03-01T14:50:42;12.38;;;6.90;;
9364;SDS011;4722;49.340;9.800;2023-03-01T14:53:25;11.85;;;6.10;;
9364;SDS011;4722;49.340;9.800;2023-03-01T14:55:56;15.63;;;7.40;;
9364;SDS011;4722;49.340;9.800;2023-03-01T14:58:25;17.90;;;6.63;;
9364;SDS011;4722;49.340;9.800;2023-03-01T15:00:54;18.45;;;7.43;;
9364;SDS011;4722;49.340;9.800;2023-03-01T15:03:27;16.92;;;6.88;;
9364;SDS011;4722;49.340;9.800;2023-03-01T15:05:56;12.77;;;6.65;;
9364;SDS011;4722;49.340;9.800;2023-03-01T15:08:25;14.27;;;6.85;;
9364;SDS011;4722;49.340;9.800;2023-03-01T15:11:21;15.77;;;6.68;;
9364;SDS011;4722;49.340;9.800;2023-03-01T15:13:44;15.98;;;8.15;;
9364;SDS011;4722;49.340;9.800;2023-03-01T15:16:13;15.63;;;7.43;;
9364;SDS011;4722;49.340;9.800;2023-03-01T15:18:46;18.30;;;7.38;;
9364;SDS011;4722;49.340;9.800;2023-03-01T15:21:17;15.35;;;6.78;;
9364;SDS011;4722;49.340;9.800;2023-03-01T15:23:47;18.25;;;6.88;;
9364;SDS011;4722;49.340;9.800;2023-03-01T15:26:24;17.25;;;6.93;;
9364;SDS011;4722;49.340;9.800;2023-03-01T15:28:51;13.65;;;5.63;;
9364;SDS011;4722;49.340;9.800;2023-03-01T15:31:19;18.23;;;8.07;;
9364;SDS011;4722;49.340;9.800;2023-03-01T15:33:46;17.00;;;6.47;;
9364;SDS011;4722;49.340;9.800;2023-03-01T15:36:55;15.93;;;6.68;;
9364;SDS011;4722;49.340;9.800;2023-03-01T15:39:05;13.07;;;5.78;;
9364;SDS011;4722;49.340;9.800;2023-03-01T15:41:48;11.90;;;5.40;;
9364;SDS011;4722;49.340;9.800;2023-03-01T15:44:34;13.85;;;6.85;;
9364;SDS011;4722;49.340;9.800;2023-03-01T15:47:00;12.73;;;6.05;;
9364;SDS011;4722;49.340;9.800;2023-03-01T15:49:30;11.45;;;5.43;;
9364;SDS011;4722;49.340;9.800;2023-03-01T15:51:58;14.48;;;6.47;;
9364;SDS011;4722;49.340;9.800;2023-03-01T15:54:24;19.33;;;7.22;;
9364;SDS011;4722;49.340;9.800;2023-03-01T15:56:51;11.95;;;5.30;;
9364;SDS011;4722;49.340;9.800;2023-03-01T15:59:17;20.90;;;6.78;;
9364;SDS011;4722;49.340;9.800;2023-03-01T16:01:43;15.40;;;5.88;;
9364;SDS011;4722;49.340;9.800;2023-03-01T16:04:13;14.70;;;6.38;;
9364;SDS011;4722;49.340;9.800;2023-03-01T16:06:45;15.30;;;5.75;;
9364;SDS011;4722;49.340;9.800;2023-03-01T16:09:19;13.57;;;5.65;;
9364;SDS011;4722;49.340;9.800;2023-03-01T16:11:46;20.02;;;5.65;;
9364;SDS011;4722;49.340;9.800;2023-03-01T16:14:12;14.93;;;6.43;;
9364;SDS011;4722;49.340;9.800;2023-03-01T16:16:39;22.90;;;7.20;;
9364;SDS011;4722;49.340;9.800;2023-03-01T16:19:05;13.68;;;6.85;;
9364;SDS011;4722;49.340;9.800;2023-03-01T16:21:31;14.02;;;5.47;;
9364;SDS011;4722;49.340;9.800;2023-03-01T16:23:57;16.83;;;6.68;;
9364;SDS011;4722;49.340;9.800;2023-03-01T16:26:23;17.02;;;6.40;;
9364;SDS011;4722;49.340;9.800;2023-03-01T16:28:49;13.07;;;6.50;;
9364;SDS011;4722;49.340;9.800;2023-03-01T16:31:21;17.58;;;6.65;;
9364;SDS011;4722;49.340;9.800;2023-03-01T16:33:47;11.18;;;5.65;;
9364;SDS011;4722;49.340;9.800;2023-03-01T16:36:15;12.50;;;6.15;;